Main page
METAR-TAF:

METAR-TAF

Airports :

Dasht-e Naz Airport

Sari, Iran

latitude: 36-38-09N, longitude: 53-11-37E, elevation: 11 m

Current weather observation

The report was made 58 minutes ago, at 08:00 UTC
Wind 4 kt from the Northeast
Temperature 14°C
Humidity 51%
Pressure 1019 hPa
Visibility 10 km or more
no clouds below 1500 m and no cumulonimbus

METAR: OINZ 250800Z 05004KT CAVOK 14/04 Q1019

Time: 12:28 (08:58 UTC)

Forecast

The report was made 58 minutes ago, at 08:00 UTC
Forecast valid from 25 at 09 UTC to 25 at 18 UTC
Wind 6 kt from the West/Southwest
Visibility: 8000 m
Few clouds at a height of 3000 ft
Becoming
from 25 at 12 UTC to 25 at 14 UTC
Wind 16 kt from the West/Southwest
Visibility: 6000 m
Scattered clouds at a height of 2500 ft
Temporary
from 25 at 14 UTC to 25 at 18 UTC
Visibility: 3000 m
Broken clouds at a height of 2000 ft
mist

TAF: OINZ 250800Z 2509/2518 24006KT 8000 FEW030 BECMG 2512/2514 24016KT 6000 SCT025 TEMPO 2514/2518 3000 BR BKN020

Weather observations and forecasts of more than 4000 airports (METAR and TAF reports).

The available stations are represented by yellow and red dots on the map.

Hover mouse over dot to see the name of the station.

Then click to see weather observations and forecasts.

To change the map : click on the green buttons with a black cross to zoom in, on the green button with a dash to zoom out, or on the green arrows for adjacent maps.


METAR-TAF: